Flugplatz Porta Westfalica

Für EDVY sind keine METAR/TAF Berichte vorhanden.
Es werden die Flugwettermeldungen vom Flugplatz Buckeburg Airport in 16 km Entfernung angezeigt.

Bericht für ETHB

vom 28.02. um 00:20 UTC

Wind 8 kt aus 280°

Sichtweite 10 km oder mehr

aufgebrochene Bewölkung in 800 ft

aufgebrochene Bewölkung in 1400 ft

Temperatur 2.0°C

Taupunkt 1.0°C

Luftfeuchtigkeit 93%

Luftdruck 1006 hPa

ETHB 280020Z 28008KT 9999 BKN008 BKN014 02/01 Q1006 GRN
Keine Prognose (TAF) verfügbar.
Impressum